sensor_id;sensor_type;location;lat;lon;timestamp;pressure;altitude;pressure_sealevel;temperature;humidity
61676;BME280;47574;52.090;5.244;2023-12-20T00:01:32;101555.0;;;13.34;55.95
61676;BME280;47574;52.090;5.244;2023-12-20T00:04:44;101550.0;;;13.3;56.1
61676;BME280;47574;52.090;5.244;2023-12-20T00:06:20;101542.0;;;13.25;56.71
61676;BME280;47574;52.090;5.244;2023-12-20T00:07:56;101548.0;;;13.31;56.73
61676;BME280;47574;52.090;5.244;2023-12-20T00:11:08;101541.0;;;13.13;56.28
61676;BME280;47574;52.090;5.244;2023-12-20T00:12:44;101543.0;;;13.1;57.16
61676;BME280;47574;52.090;5.244;2023-12-20T00:14:20;101536.0;;;13.07;57.76
61676;BME280;47574;52.090;5.244;2023-12-20T00:17:33;101535.0;;;13.04;56.56
61676;BME280;47574;52.090;5.244;2023-12-20T00:19:09;101530.0;;;13.06;57.69
61676;BME280;47574;52.090;5.244;2023-12-20T00:20:45;101535.0;;;13.03;57.44
61676;BME280;47574;52.090;5.244;2023-12-20T00:22:21;101539.0;;;13.05;57.6
61676;BME280;47574;52.090;5.244;2023-12-20T00:25:33;101530.0;;;12.92;57.49
61676;BME280;47574;52.090;5.244;2023-12-20T00:27:09;101525.0;;;13.04;57.39
61676;BME280;47574;52.090;5.244;2023-12-20T00:28:45;101525.0;;;12.97;57.37
61676;BME280;47574;52.090;5.244;2023-12-20T00:31:57;101531.0;;;13.08;56.59
61676;BME280;47574;52.090;5.244;2023-12-20T00:33:34;101528.0;;;12.99;56.75
61676;BME280;47574;52.090;5.244;2023-12-20T00:35:10;101537.0;;;13.05;56.37
61676;BME280;47574;52.090;5.244;2023-12-20T00:38:22;101539.0;;;13.04;56.63
61676;BME280;47574;52.090;5.244;2023-12-20T00:39:58;101540.0;;;12.96;57.02
61676;BME280;47574;52.090;5.244;2023-12-20T00:41:37;101542.0;;;12.97;56.83
61676;BME280;47574;52.090;5.244;2023-12-20T00:43:13;101543.0;;;13.12;56.69
61676;BME280;47574;52.090;5.244;2023-12-20T00:46:25;101539.0;;;13.2;55.9
61676;BME280;47574;52.090;5.244;2023-12-20T00:48:02;101538.0;;;13.15;55.97
61676;BME280;47574;52.090;5.244;2023-12-20T00:49:37;101531.0;;;13.26;55.79
61676;BME280;47574;52.090;5.244;2023-12-20T00:52:50;101535.0;;;13.27;56.25
61676;BME280;47574;52.090;5.244;2023-12-20T00:54:26;101534.0;;;13.03;56.96
61676;BME280;47574;52.090;5.244;2023-12-20T00:56:02;101535.0;;;12.98;56.64
61676;BME280;47574;52.090;5.244;2023-12-20T00:59:16;101535.0;;;13.06;56.05
61676;BME280;47574;52.090;5.244;2023-12-20T01:00:52;101533.0;;;13.1;56.15
61676;BME280;47574;52.090;5.244;2023-12-20T01:02:28;101537.0;;;12.9;57.25
61676;BME280;47574;52.090;5.244;2023-12-20T01:04:04;101535.0;;;13.06;56.09
61676;BME280;47574;52.090;5.244;2023-12-20T01:07:16;101532.0;;;12.98;56.31
61676;BME280;47574;52.090;5.244;2023-12-20T01:08:53;101526.0;;;13.05;56.33
61676;BME280;47574;52.090;5.244;2023-12-20T01:10:29;101525.0;;;13.1;56.13
61676;BME280;47574;52.090;5.244;2023-12-20T01:13:41;101523.0;;;12.95;56.96
61676;BME280;47574;52.090;5.244;2023-12-20T01:15:18;101525.0;;;12.92;56.78
61676;BME280;47574;52.090;5.244;2023-12-20T01:16:54;101524.0;;;13.04;56.86
61676;BME280;47574;52.090;5.244;2023-12-20T01:20:07;101525.0;;;12.99;56.97
61676;BME280;47574;52.090;5.244;2023-12-20T01:21:43;101530.0;;;12.88;57.22
61676;BME280;47574;52.090;5.244;2023-12-20T01:23:19;101541.0;;;12.9;56.42
61676;BME280;47574;52.090;5.244;2023-12-20T01:26:32;101546.0;;;13.05;56.32
61676;BME280;47574;52.090;5.244;2023-12-20T01:28:08;101544.0;;;12.9;56.98
61676;BME280;47574;52.090;5.244;2023-12-20T01:29:44;101546.0;;;13.02;55.87
61676;BME280;47574;52.090;5.244;2023-12-20T01:31:20;101536.0;;;12.98;56.39
61676;BME280;47574;52.090;5.244;2023-12-20T01:34:32;101538.0;;;12.84;56.65
61676;BME280;47574;52.090;5.244;2023-12-20T01:36:08;101532.0;;;13.02;56.25
61676;BME280;47574;52.090;5.244;2023-12-20T01:37:44;101527.0;;;13.0;56.73
61676;BME280;47574;52.090;5.244;2023-12-20T01:40:57;101523.0;;;13.03;56.41
61676;BME280;47574;52.090;5.244;2023-12-20T01:42:33;101520.0;;;12.99;56.64
61676;BME280;47574;52.090;5.244;2023-12-20T01:44:09;101525.0;;;13.01;56.46
61676;BME280;47574;52.090;5.244;2023-12-20T01:47:22;101525.0;;;12.98;56.4
61676;BME280;47574;52.090;5.244;2023-12-20T01:48:58;101526.0;;;13.19;56.02
61676;BME280;47574;52.090;5.244;2023-12-20T01:50:36;101526.0;;;13.16;55.91
61676;BME280;47574;52.090;5.244;2023-12-20T01:52:13;101530.0;;;13.08;56.79
61676;BME280;47574;52.090;5.244;2023-12-20T01:55:25;101528.0;;;13.19;56.14
61676;BME280;47574;52.090;5.244;2023-12-20T01:57:03;101531.0;;;13.0;56.54
61676;BME280;47574;52.090;5.244;2023-12-20T01:58:44;101528.0;;;12.97;56.9
61676;BME280;47574;52.090;5.244;2023-12-20T02:02:03;101528.0;;;13.17;55.91
61676;BME280;47574;52.090;5.244;2023-12-20T02:03:39;101527.0;;;13.19;55.66
61676;BME280;47574;52.090;5.244;2023-12-20T02:05:16;101527.0;;;13.05;56.65
61676;BME280;47574;52.090;5.244;2023-12-20T02:06:55;101525.0;;;13.13;55.74
61676;BME280;47574;52.090;5.244;2023-12-20T02:10:08;101528.0;;;13.12;55.87
61676;BME280;47574;52.090;5.244;2023-12-20T02:11:43;101526.0;;;13.21;55.97
61676;BME280;47574;52.090;5.244;2023-12-20T02:13:20;101525.0;;;13.3;56.15
61676;BME280;47574;52.090;5.244;2023-12-20T02:16:32;101525.0;;;13.29;56.17
61676;BME280;47574;52.090;5.244;2023-12-20T02:18:08;101527.0;;;13.39;55.25
61676;BME280;47574;52.090;5.244;2023-12-20T02:19:44;101526.0;;;13.24;56.32
61676;BME280;47574;52.090;5.244;2023-12-20T02:23:03;101530.0;;;13.32;55.9
61676;BME280;47574;52.090;5.244;2023-12-20T02:24:39;101526.0;;;13.3;55.78
61676;BME280;47574;52.090;5.244;2023-12-20T02:26:16;101519.0;;;13.33;55.75
61676;BME280;47574;52.090;5.244;2023-12-20T02:27:52;101525.0;;;13.16;55.8
61676;BME280;47574;52.090;5.244;2023-12-20T02:31:05;101515.0;;;13.21;56.01
61676;BME280;47574;52.090;5.244;2023-12-20T02:32:41;101511.0;;;13.29;55.93
61676;BME280;47574;52.090;5.244;2023-12-20T02:34:17;101507.0;;;13.34;55.39
61676;BME280;47574;52.090;5.244;2023-12-20T02:37:29;101508.0;;;13.16;55.56
61676;BME280;47574;52.090;5.244;2023-12-20T02:39:05;101512.0;;;13.26;55.39
61676;BME280;47574;52.090;5.244;2023-12-20T02:40:41;101513.0;;;13.22;55.75
61676;BME280;47574;52.090;5.244;2023-12-20T02:43:53;101513.0;;;13.15;55.94
61676;BME280;47574;52.090;5.244;2023-12-20T02:45:30;101506.0;;;13.28;56.1
61676;BME280;47574;52.090;5.244;2023-12-20T02:47:06;101506.0;;;13.3;55.9
61676;BME280;47574;52.090;5.244;2023-12-20T02:48:42;101502.0;;;13.29;55.71
61676;BME280;47574;52.090;5.244;2023-12-20T02:51:54;101508.0;;;13.38;55.86
61676;BME280;47574;52.090;5.244;2023-12-20T02:53:30;101510.0;;;13.46;55.49
61676;BME280;47574;52.090;5.244;2023-12-20T02:55:06;101505.0;;;13.4;55.24
61676;BME280;47574;52.090;5.244;2023-12-20T02:58:22;101505.0;;;13.4;55.63
61676;BME280;47574;52.090;5.244;2023-12-20T02:59:58;101492.0;;;13.59;54.91
61676;BME280;47574;52.090;5.244;2023-12-20T03:01:35;101489.0;;;13.4;55.05
61676;BME280;47574;52.090;5.244;2023-12-20T03:04:47;101483.0;;;13.59;54.95
61676;BME280;47574;52.090;5.244;2023-12-20T03:06:23;101474.0;;;13.21;55.41
61676;BME280;47574;52.090;5.244;2023-12-20T03:08:04;101475.0;;;13.37;55.52
61676;BME280;47574;52.090;5.244;2023-12-20T03:09:40;101469.0;;;13.28;55.66
61676;BME280;47574;52.090;5.244;2023-12-20T03:12:52;101467.0;;;13.47;55.05
61676;BME280;47574;52.090;5.244;2023-12-20T03:14:28;101472.0;;;13.26;55.68
61676;BME280;47574;52.090;5.244;2023-12-20T03:16:08;101470.0;;;13.38;55.57
61676;BME280;47574;52.090;5.244;2023-12-20T03:19:21;101477.0;;;13.15;55.44
61676;BME280;47574;52.090;5.244;2023-12-20T03:20:57;101474.0;;;13.16;55.34
61676;BME280;47574;52.090;5.244;2023-12-20T03:22:33;101473.0;;;13.28;54.94
61676;BME280;47574;52.090;5.244;2023-12-20T03:25:45;101474.0;;;13.35;54.79
61676;BME280;47574;52.090;5.244;2023-12-20T03:27:21;101473.0;;;13.39;55.33
61676;BME280;47574;52.090;5.244;2023-12-20T03:28:57;101478.0;;;13.38;54.6
61676;BME280;47574;52.090;5.244;2023-12-20T03:30:36;101473.0;;;13.42;54.55
61676;BME280;47574;52.090;5.244;2023-12-20T03:33:48;101478.0;;;13.26;55.47
61676;BME280;47574;52.090;5.244;2023-12-20T03:35:24;101475.0;;;13.52;54.84
61676;BME280;47574;52.090;5.244;2023-12-20T03:37:01;101475.0;;;13.34;54.63
61676;BME280;47574;52.090;5.244;2023-12-20T03:40:13;101474.0;;;13.47;55.42
61676;BME280;47574;52.090;5.244;2023-12-20T03:41:49;101463.0;;;13.57;54.28
61676;BME280;47574;52.090;5.244;2023-12-20T03:43:25;101465.0;;;13.47;54.76
61676;BME280;47574;52.090;5.244;2023-12-20T03:46:37;101482.0;;;13.46;54.26
61676;BME280;47574;52.090;5.244;2023-12-20T03:48:13;101476.0;;;13.59;54.1
61676;BME280;47574;52.090;5.244;2023-12-20T03:49:49;101478.0;;;13.5;54.23
61676;BME280;47574;52.090;5.244;2023-12-20T03:53:05;101484.0;;;13.29;54.35
61676;BME280;47574;52.090;5.244;2023-12-20T03:54:41;101477.0;;;13.13;54.68
61676;BME280;47574;52.090;5.244;2023-12-20T03:56:17;101477.0;;;13.18;54.71
61676;BME280;47574;52.090;5.244;2023-12-20T03:57:53;101482.0;;;13.42;54.28
61676;BME280;47574;52.090;5.244;2023-12-20T04:01:09;101480.0;;;13.39;54.22
61676;BME280;47574;52.090;5.244;2023-12-20T04:02:45;101488.0;;;13.44;54.44
61676;BME280;47574;52.090;5.244;2023-12-20T04:04:21;101490.0;;;13.51;54.06
61676;BME280;47574;52.090;5.244;2023-12-20T04:07:34;101484.0;;;13.63;54.33
61676;BME280;47574;52.090;5.244;2023-12-20T04:09:11;101483.0;;;13.32;54.62
61676;BME280;47574;52.090;5.244;2023-12-20T04:10:47;101484.0;;;13.33;54.1
61676;BME280;47574;52.090;5.244;2023-12-20T04:12:24;101482.0;;;13.34;54.24
61676;BME280;47574;52.090;5.244;2023-12-20T04:15:36;101480.0;;;13.32;54.11
61676;BME280;47574;52.090;5.244;2023-12-20T04:17:12;101480.0;;;13.36;54.05
61676;BME280;47574;52.090;5.244;2023-12-20T04:18:50;101481.0;;;13.51;53.92
61676;BME280;47574;52.090;5.244;2023-12-20T04:22:02;101473.0;;;13.52;53.56
61676;BME280;47574;52.090;5.244;2023-12-20T04:23:38;101472.0;;;13.4;53.99
61676;BME280;47574;52.090;5.244;2023-12-20T04:25:14;101472.0;;;13.56;53.57
61676;BME280;47574;52.090;5.244;2023-12-20T04:28:27;101467.0;;;13.43;53.89
61676;BME280;47574;52.090;5.244;2023-12-20T04:30:03;101467.0;;;13.59;53.59
61676;BME280;47574;52.090;5.244;2023-12-20T04:31:40;101471.0;;;13.55;53.35
61676;BME280;47574;52.090;5.244;2023-12-20T04:34:52;101473.0;;;13.47;53.48
61676;BME280;47574;52.090;5.244;2023-12-20T04:36:28;101469.0;;;13.48;53.56
61676;BME280;47574;52.090;5.244;2023-12-20T04:38:04;101471.0;;;13.53;53.38
61676;BME280;47574;52.090;5.244;2023-12-20T04:39:40;101469.0;;;13.48;53.48
61676;BME280;47574;52.090;5.244;2023-12-20T04:42:52;101463.0;;;13.59;53.14
61676;BME280;47574;52.090;5.244;2023-12-20T04:44:29;101469.0;;;13.58;53.64
61676;BME280;47574;52.090;5.244;2023-12-20T04:46:05;101467.0;;;13.69;53.26
61676;BME280;47574;52.090;5.244;2023-12-20T04:49:18;101465.0;;;13.64;53.15
61676;BME280;47574;52.090;5.244;2023-12-20T04:50:54;101466.0;;;13.77;53.14
61676;BME280;47574;52.090;5.244;2023-12-20T04:52:30;101472.0;;;13.76;53.66
61676;BME280;47574;52.090;5.244;2023-12-20T04:55:43;101463.0;;;13.65;53.91
61676;BME280;47574;52.090;5.244;2023-12-20T04:57:18;101456.0;;;13.76;53.33
61676;BME280;47574;52.090;5.244;2023-12-20T04:58:54;101461.0;;;13.75;53.09
61676;BME280;47574;52.090;5.244;2023-12-20T05:00:31;101459.0;;;13.93;53.38
61676;BME280;47574;52.090;5.244;2023-12-20T05:03:43;101458.0;;;13.72;53.46
61676;BME280;47574;52.090;5.244;2023-12-20T05:05:20;101452.0;;;13.69;53.64
61676;BME280;47574;52.090;5.244;2023-12-20T05:06:56;101455.0;;;13.78;53.29
61676;BME280;47574;52.090;5.244;2023-12-20T05:10:09;101455.0;;;13.72;53.56
61676;BME280;47574;52.090;5.244;2023-12-20T05:11:45;101451.0;;;13.64;53.75
61676;BME280;47574;52.090;5.244;2023-12-20T05:13:22;101451.0;;;13.7;53.5
61676;BME280;47574;52.090;5.244;2023-12-20T05:16:34;101452.0;;;13.5;53.93
61676;BME280;47574;52.090;5.244;2023-12-20T05:18:11;101455.0;;;13.54;53.82
61676;BME280;47574;52.090;5.244;2023-12-20T05:19:47;101456.0;;;13.62;53.2
61676;BME280;47574;52.090;5.244;2023-12-20T05:23:02;101456.0;;;13.6;54.25
61676;BME280;47574;52.090;5.244;2023-12-20T05:24:38;101456.0;;;13.52;54.41
61676;BME280;47574;52.090;5.244;2023-12-20T05:26:14;101461.0;;;13.57;53.85
61676;BME280;47574;52.090;5.244;2023-12-20T05:27:50;101464.0;;;13.69;53.7
61676;BME280;47574;52.090;5.244;2023-12-20T05:31:03;101458.0;;;13.7;53.92
61676;BME280;47574;52.090;5.244;2023-12-20T05:32:38;101455.0;;;13.78;53.36
61676;BME280;47574;52.090;5.244;2023-12-20T05:34:14;101461.0;;;13.59;53.44
61676;BME280;47574;52.090;5.244;2023-12-20T05:37:26;101455.0;;;13.71;53.53
61676;BME280;47574;52.090;5.244;2023-12-20T05:39:02;101452.0;;;13.89;53.27
61676;BME280;47574;52.090;5.244;2023-12-20T05:40:39;101452.0;;;13.72;53.73
61676;BME280;47574;52.090;5.244;2023-12-20T05:43:51;101458.0;;;13.72;53.92
61676;BME280;47574;52.090;5.244;2023-12-20T05:45:27;101460.0;;;13.74;53.91
61676;BME280;47574;52.090;5.244;2023-12-20T05:47:03;101469.0;;;13.82;53.47
61676;BME280;47574;52.090;5.244;2023-12-20T05:48:39;101466.0;;;13.49;53.66
61676;BME280;47574;52.090;5.244;2023-12-20T05:51:51;101462.0;;;13.39;53.63
61676;BME280;47574;52.090;5.244;2023-12-20T05:53:28;101462.0;;;13.66;53.48
61676;BME280;47574;52.090;5.244;2023-12-20T05:55:04;101471.0;;;13.66;53.52
61676;BME280;47574;52.090;5.244;2023-12-20T05:58:16;101462.0;;;13.47;54.07
61676;BME280;47574;52.090;5.244;2023-12-20T05:59:52;101461.0;;;13.78;53.75
61676;BME280;47574;52.090;5.244;2023-12-20T06:01:28;101458.0;;;13.67;53.7
61676;BME280;47574;52.090;5.244;2023-12-20T06:04:42;101464.0;;;13.64;53.5
61676;BME280;47574;52.090;5.244;2023-12-20T06:06:17;101457.0;;;13.8;53.15
61676;BME280;47574;52.090;5.244;2023-12-20T06:07:53;101459.0;;;13.66;53.54
61676;BME280;47574;52.090;5.244;2023-12-20T06:11:06;101462.0;;;13.85;53.26
61676;BME280;47574;52.090;5.244;2023-12-20T06:12:42;101461.0;;;13.65;53.45
61676;BME280;47574;52.090;5.244;2023-12-20T06:14:18;101452.0;;;13.76;53.28
61676;BME280;47574;52.090;5.244;2023-12-20T06:15:54;101450.0;;;13.42;53.95
61676;BME280;47574;52.090;5.244;2023-12-20T06:19:09;101445.0;;;13.67;53.42
61676;BME280;47574;52.090;5.244;2023-12-20T06:20:45;101448.0;;;13.66;53.92
61676;BME280;47574;52.090;5.244;2023-12-20T06:22:21;101447.0;;;13.84;53.4
61676;BME280;47574;52.090;5.244;2023-12-20T06:25:34;101446.0;;;13.78;53.5
61676;BME280;47574;52.090;5.244;2023-12-20T06:27:10;101449.0;;;13.81;53.41
61676;BME280;47574;52.090;5.244;2023-12-20T06:28:47;101448.0;;;13.7;53.85
61676;BME280;47574;52.090;5.244;2023-12-20T06:31:59;101449.0;;;13.81;53.34
61676;BME280;47574;52.090;5.244;2023-12-20T06:33:35;101453.0;;;13.85;53.19
61676;BME280;47574;52.090;5.244;2023-12-20T06:35:12;101452.0;;;13.77;53.59
61676;BME280;47574;52.090;5.244;2023-12-20T06:36:48;101445.0;;;13.82;53.39
61676;BME280;47574;52.090;5.244;2023-12-20T06:40:01;101449.0;;;13.58;53.69
61676;BME280;47574;52.090;5.244;2023-12-20T06:41:40;101447.0;;;13.88;54.09
61676;BME280;47574;52.090;5.244;2023-12-20T06:43:16;101442.0;;;13.99;53.45
61676;BME280;47574;52.090;5.244;2023-12-20T06:46:28;101439.0;;;13.8;54.01
61676;BME280;47574;52.090;5.244;2023-12-20T06:48:05;101440.0;;;13.68;53.87
61676;BME280;47574;52.090;5.244;2023-12-20T06:49:41;101435.0;;;13.8;53.41
61676;BME280;47574;52.090;5.244;2023-12-20T06:52:56;101432.0;;;13.76;54.22
61676;BME280;47574;52.090;5.244;2023-12-20T06:54:32;101434.0;;;13.8;53.92
61676;BME280;47574;52.090;5.244;2023-12-20T06:56:10;101438.0;;;13.65;53.97
61676;BME280;47574;52.090;5.244;2023-12-20T06:57:46;101441.0;;;13.68;53.84
61676;BME280;47574;52.090;5.244;2023-12-20T07:00:59;101442.0;;;13.48;54.15
61676;BME280;47574;52.090;5.244;2023-12-20T07:02:35;101438.0;;;13.62;53.99
61676;BME280;47574;52.090;5.244;2023-12-20T07:04:14;101437.0;;;13.75;53.53
61676;BME280;47574;52.090;5.244;2023-12-20T07:07:26;101427.0;;;13.8;53.83
61676;BME280;47574;52.090;5.244;2023-12-20T07:09:02;101435.0;;;13.66;53.69
61676;BME280;47574;52.090;5.244;2023-12-20T07:10:38;101435.0;;;13.95;53.61
61676;BME280;47574;52.090;5.244;2023-12-20T07:13:50;101433.0;;;13.72;53.85
61676;BME280;47574;52.090;5.244;2023-12-20T07:15:29;101423.0;;;13.88;53.58
61676;BME280;47574;52.090;5.244;2023-12-20T07:17:06;101424.0;;;13.81;53.53
61676;BME280;47574;52.090;5.244;2023-12-20T07:18:42;101423.0;;;13.88;53.41
61676;BME280;47574;52.090;5.244;2023-12-20T07:21:54;101412.0;;;14.03;53.28
61676;BME280;47574;52.090;5.244;2023-12-20T07:23:30;101419.0;;;13.92;53.78
61676;BME280;47574;52.090;5.244;2023-12-20T07:25:07;101412.0;;;13.96;53.47
61676;BME280;47574;52.090;5.244;2023-12-20T07:28:22;101409.0;;;14.07;53.18
61676;BME280;47574;52.090;5.244;2023-12-20T07:29:58;101412.0;;;14.11;53.22
61676;BME280;47574;52.090;5.244;2023-12-20T07:31:34;101408.0;;;13.91;53.63
61676;BME280;47574;52.090;5.244;2023-12-20T07:34:47;101405.0;;;14.04;53.27
61676;BME280;47574;52.090;5.244;2023-12-20T07:36:23;101405.0;;;13.98;53.27
61676;BME280;47574;52.090;5.244;2023-12-20T07:38:02;101402.0;;;14.03;53.28
61676;BME280;47574;52.090;5.244;2023-12-20T07:39:39;101405.0;;;13.77;54.03
61676;BME280;47574;52.090;5.244;2023-12-20T07:42:51;101409.0;;;13.92;53.59
61676;BME280;47574;52.090;5.244;2023-12-20T07:44:27;101407.0;;;13.93;53.84
61676;BME280;47574;52.090;5.244;2023-12-20T07:46:04;101416.0;;;13.85;53.73
61676;BME280;47574;52.090;5.244;2023-12-20T07:49:16;101417.0;;;14.0;53.3
61676;BME280;47574;52.090;5.244;2023-12-20T07:50:52;101426.0;;;14.02;53.61
61676;BME280;47574;52.090;5.244;2023-12-20T07:52:29;101424.0;;;13.66;54.14
61676;BME280;47574;52.090;5.244;2023-12-20T07:55:41;101421.0;;;13.95;53.73
61676;BME280;47574;52.090;5.244;2023-12-20T07:57:17;101421.0;;;13.92;53.87
61676;BME280;47574;52.090;5.244;2023-12-20T07:58:53;101421.0;;;13.81;54.12
61676;BME280;47574;52.090;5.244;2023-12-20T08:00:29;101430.0;;;14.14;53.6
61676;BME280;47574;52.090;5.244;2023-12-20T08:03:41;101431.0;;;14.13;53.42
61676;BME280;47574;52.090;5.244;2023-12-20T08:05:17;101439.0;;;13.99;53.5
61676;BME280;47574;52.090;5.244;2023-12-20T08:06:54;101445.0;;;14.08;53.4
61676;BME280;47574;52.090;5.244;2023-12-20T08:10:07;101447.0;;;13.99;53.98
61676;BME280;47574;52.090;5.244;2023-12-20T08:11:45;101449.0;;;13.93;53.82
61676;BME280;47574;52.090;5.244;2023-12-20T08:13:21;101446.0;;;13.99;53.74
61676;BME280;47574;52.090;5.244;2023-12-20T08:16:33;101447.0;;;13.96;54.24
61676;BME280;47574;52.090;5.244;2023-12-20T08:18:09;101445.0;;;14.03;54.64
61676;BME280;47574;52.090;5.244;2023-12-20T08:19:45;101440.0;;;13.94;53.77
61676;BME280;47574;52.090;5.244;2023-12-20T08:21:21;101432.0;;;13.79;54.18
61676;BME280;47574;52.090;5.244;2023-12-20T08:24:34;101443.0;;;13.29;54.95
61676;BME280;47574;52.090;5.244;2023-12-20T08:26:10;101434.0;;;12.82;56.53
61676;BME280;47574;52.090;5.244;2023-12-20T08:27:46;101430.0;;;13.1;56.19
61676;BME280;47574;52.090;5.244;2023-12-20T08:30:58;101428.0;;;13.15;55.83
61676;BME280;47574;52.090;5.244;2023-12-20T08:32:34;101430.0;;;12.73;57.05
61676;BME280;47574;52.090;5.244;2023-12-20T08:34:13;101426.0;;;12.71;57.16
61676;BME280;47574;52.090;5.244;2023-12-20T08:37:25;101426.0;;;12.97;56.9
61676;BME280;47574;52.090;5.244;2023-12-20T08:39:02;101420.0;;;12.97;56.84
61676;BME280;47574;52.090;5.244;2023-12-20T08:40:38;101425.0;;;13.01;56.61
61676;BME280;47574;52.090;5.244;2023-12-20T08:43:50;101422.0;;;12.6;57.56
61676;BME280;47574;52.090;5.244;2023-12-20T08:45:26;101423.0;;;12.79;57.35
61676;BME280;47574;52.090;5.244;2023-12-20T08:47:02;101422.0;;;12.61;57.83
61676;BME280;47574;52.090;5.244;2023-12-20T08:48:39;101430.0;;;12.43;58.49
61676;BME280;47574;52.090;5.244;2023-12-20T08:51:51;101431.0;;;12.93;57.37
61676;BME280;47574;52.090;5.244;2023-12-20T08:53:27;101441.0;;;11.97;59.43
61676;BME280;47574;52.090;5.244;2023-12-20T08:55:04;101434.0;;;12.33;58.66
61676;BME280;47574;52.090;5.244;2023-12-20T08:58:17;101430.0;;;12.46;58.38
61676;BME280;47574;52.090;5.244;2023-12-20T08:59:53;101432.0;;;12.25;59.02
61676;BME280;47574;52.090;5.244;2023-12-20T09:01:29;101430.0;;;12.4;58.94
61676;BME280;47574;52.090;5.244;2023-12-20T09:04:41;101426.0;;;12.7;58.44
61676;BME280;47574;52.090;5.244;2023-12-20T09:06:18;101430.0;;;12.67;58.36
61676;BME280;47574;52.090;5.244;2023-12-20T09:07:54;101426.0;;;12.85;58.1
61676;BME280;47574;52.090;5.244;2023-12-20T09:09:30;101420.0;;;13.21;57.13
61676;BME280;47574;52.090;5.244;2023-12-20T09:12:43;101422.0;;;12.58;58.66
61676;BME280;47574;52.090;5.244;2023-12-20T09:14:19;101424.0;;;12.57;58.36
61676;BME280;47574;52.090;5.244;2023-12-20T09:15:55;101427.0;;;12.32;59.1
61676;BME280;47574;52.090;5.244;2023-12-20T09:19:10;101428.0;;;13.28;57.06
61676;BME280;47574;52.090;5.244;2023-12-20T09:20:46;101422.0;;;13.41;56.54
61676;BME280;47574;52.090;5.244;2023-12-20T09:22:22;101415.0;;;13.4;56.3
61676;BME280;47574;52.090;5.244;2023-12-20T09:25:34;101418.0;;;12.81;57.65
61676;BME280;47574;52.090;5.244;2023-12-20T09:27:10;101428.0;;;13.3;56.7
61676;BME280;47574;52.090;5.244;2023-12-20T09:28:47;101424.0;;;13.24;56.75
61676;BME280;47574;52.090;5.244;2023-12-20T09:30:23;101416.0;;;13.31;56.55
61676;BME280;47574;52.090;5.244;2023-12-20T09:33:35;101421.0;;;12.75;57.95
61676;BME280;47574;52.090;5.244;2023-12-20T09:35:12;101421.0;;;13.23;56.72
61676;BME280;47574;52.090;5.244;2023-12-20T09:36:48;101419.0;;;13.11;57.22
61676;BME280;47574;52.090;5.244;2023-12-20T09:40:00;101419.0;;;12.78;57.87
61676;BME280;47574;52.090;5.244;2023-12-20T09:41:43;101422.0;;;13.23;57.0
61676;BME280;47574;52.090;5.244;2023-12-20T09:43:23;101424.0;;;13.32;56.84
61676;BME280;47574;52.090;5.244;2023-12-20T09:46:39;101430.0;;;13.27;56.46
61676;BME280;47574;52.090;5.244;2023-12-20T09:48:19;101424.0;;;13.49;56.31
61676;BME280;47574;52.090;5.244;2023-12-20T09:49:55;101430.0;;;13.49;56.13
61676;BME280;47574;52.090;5.244;2023-12-20T09:51:32;101432.0;;;13.63;55.87
61676;BME280;47574;52.090;5.244;2023-12-20T09:54:54;101428.0;;;13.8;55.4
61676;BME280;47574;52.090;5.244;2023-12-20T09:56:31;101424.0;;;13.4;56.28
61676;BME280;47574;52.090;5.244;2023-12-20T09:58:08;101430.0;;;13.78;55.31
61676;BME280;47574;52.090;5.244;2023-12-20T09:59:44;101430.0;;;13.72;55.63
61676;BME280;47574;52.090;5.244;2023-12-20T10:02:59;101436.0;;;13.88;55.28
61676;BME280;47574;52.090;5.244;2023-12-20T10:04:36;101448.0;;;13.56;55.79
61676;BME280;47574;52.090;5.244;2023-12-20T10:06:12;101446.0;;;13.75;55.51
61676;BME280;47574;52.090;5.244;2023-12-20T10:09:24;101444.0;;;13.55;55.5
61676;BME280;47574;52.090;5.244;2023-12-20T10:11:00;101445.0;;;13.9;55.04
61676;BME280;47574;52.090;5.244;2023-12-20T10:12:36;101445.0;;;13.57;55.71
61676;BME280;47574;52.090;5.244;2023-12-20T10:15:51;101449.0;;;13.71;55.25
61676;BME280;47574;52.090;5.244;2023-12-20T10:17:27;101455.0;;;13.14;56.69
61676;BME280;47574;52.090;5.244;2023-12-20T10:19:04;101447.0;;;13.71;55.93
61676;BME280;47574;52.090;5.244;2023-12-20T10:20:40;101443.0;;;13.66;55.87
61676;BME280;47574;52.090;5.244;2023-12-20T10:23:53;101442.0;;;13.53;56.21
61676;BME280;47574;52.090;5.244;2023-12-20T10:25:30;101439.0;;;14.01;55.55
61676;BME280;47574;52.090;5.244;2023-12-20T10:27:07;101427.0;;;13.75;55.71
61676;BME280;47574;52.090;5.244;2023-12-20T10:30:20;101430.0;;;13.41;56.44
61676;BME280;47574;52.090;5.244;2023-12-20T10:31:56;101432.0;;;13.63;56.04
61676;BME280;47574;52.090;5.244;2023-12-20T10:33:32;101422.0;;;13.99;55.24
61676;BME280;47574;52.090;5.244;2023-12-20T10:36:45;101431.0;;;13.79;55.54
61676;BME280;47574;52.090;5.244;2023-12-20T10:38:21;101430.0;;;13.97;55.24
61676;BME280;47574;52.090;5.244;2023-12-20T10:39:59;101433.0;;;13.95;55.3
61676;BME280;47574;52.090;5.244;2023-12-20T10:41:38;101433.0;;;14.12;54.79
61676;BME280;47574;52.090;5.244;2023-12-20T10:44:51;101425.0;;;13.58;55.93
61676;BME280;47574;52.090;5.244;2023-12-20T10:46:29;101422.0;;;13.79;55.45
61676;BME280;47574;52.090;5.244;2023-12-20T10:48:06;101423.0;;;13.95;55.18
61676;BME280;47574;52.090;5.244;2023-12-20T10:51:21;101421.0;;;13.6;55.66
61676;BME280;47574;52.090;5.244;2023-12-20T10:52:58;101418.0;;;14.02;54.71
61676;BME280;47574;52.090;5.244;2023-12-20T10:54:35;101419.0;;;13.9;54.89
61676;BME280;47574;52.090;5.244;2023-12-20T10:56:12;101409.0;;;13.51;55.54
61676;BME280;47574;52.090;5.244;2023-12-20T10:59:29;101414.0;;;13.82;54.76
61676;BME280;47574;52.090;5.244;2023-12-20T11:01:13;101402.0;;;14.1;54.78
61676;BME280;47574;52.090;5.244;2023-12-20T11:02:50;101398.0;;;14.09;54.5
61676;BME280;47574;52.090;5.244;2023-12-20T11:06:23;101407.0;;;14.0;54.77
61676;BME280;47574;52.090;5.244;2023-12-20T11:08:09;101393.0;;;14.12;54.7